Bostic, NC (28018)

8:46 PM EDT on May 22, 2015 (GMT -0400)
Rutherford County-Marchman | | Change Station
CLOSE
Current Station
Airport
Location: Rutherfordton,
Elevation: 1079 ft
Nearby Weather Stations

Elev 1079 ft 35.43 °N, 81.94 °W | Updated 11 minutes ago

Clear
Clear
67 °F
Feels Like 67 °F
N
5
Wind Variable Wind from SE

Today
High -- | Low -- °F
--% Chance of Precip.
Yesterday
High -- | Low -- °F
Precip. -- in
6:18 AM 8:30 PM
Waxing Crescent, 25% visible
Pressure 30.24 in
Visibility 10.0 miles
Clouds Clear
Dew Point 46 °F
Humidity 48%
Rainfall 0.00 in
Snow Depth Not available.
UV 0 out of 12
Pollen 7.90 out of 12
Air Quality Not available.
Flu Activity No Activity
METAR KFQD 230035Z AUTO 13004KT 10SM CLR 19/08 A3024 RMK AO2 T01930080

More Conditions Fewer Conditions

Pressure 30.24 in
Visibility 10.0 miles
Clouds Clear
Dew Point 46 °F
Humidity 48%
Rainfall 0.00 in
Snow Depth Not available.
UV 0 out of 12
Pollen 7.90 out of 12
Air Quality Not available.
Flu Activity No Activity
METAR KFQD 230035Z AUTO 13004KT 10SM CLR 19/08 A3024 RMK AO2 T01930080

More Conditions Fewer Conditions

10-Day Weather Forecast

Almanac

Astronomy

May. 22, 2015 Rise Set
Actual Time
Civil Twilight
Nautical Twilight
Astronomical Twilight
Moon
Length of Visible Light
Length of Day
Tomorrow will be .
, % of the Moon is Illuminated

Today's Extremes

State Highs State Lows

Community

WunderPhotos

Upload Photos

1,823,350 photos uploaded!

WunderBlogs® & News

Nearby

Air Quality

  Air Quality AQ Index Pollutant
Not available.

Snow Depth

Station Depth Elevation

Earthquake Activity

City Distance Mag. Time & Date
Minimum magnitude displayed is 2.5.

Coastal Water Temperatures

Place Temperature

Stations

Nearby Weather Stations

Station Location Temp. Windchill Dew Point Humidity Wind Precip. Elev Updated Type